sensor_id;sensor_type;location;lat;lon;timestamp;temperature;humidity
55016;DHT22;40919;43.236;21.590;2023-10-09T12:35:26;665.70;1664.00
55016;DHT22;40919;43.236;21.590;2023-10-09T12:37:54;665.80;1715.20
55016;DHT22;40919;43.236;21.590;2023-10-09T12:40:22;666.00;1715.20
55016;DHT22;40919;43.236;21.590;2023-10-09T12:42:54;666.00;1689.60
55016;DHT22;40919;43.236;21.590;2023-10-09T12:45:21;665.90;1689.60
55016;DHT22;40919;43.236;21.590;2023-10-09T12:47:58;666.00;1689.60
55016;DHT22;40919;43.236;21.590;2023-10-09T12:50:34;665.90;1689.60
55016;DHT22;40919;43.236;21.590;2023-10-09T12:53:01;666.30;1689.60
55016;DHT22;40919;43.236;21.590;2023-10-09T12:55:39;666.00;1715.20
55016;DHT22;40919;43.236;21.590;2023-10-09T12:58:09;666.20;1715.20
55016;DHT22;40919;43.236;21.590;2023-10-09T13:00:41;666.00;1715.20
55016;DHT22;40919;43.236;21.590;2023-10-09T13:03:10;666.00;1715.20
55016;DHT22;40919;43.236;21.590;2023-10-09T13:05:50;665.90;1740.80
55016;DHT22;40919;43.236;21.590;2023-10-09T13:08:24;665.90;1715.20
55016;DHT22;40919;43.236;21.590;2023-10-09T13:10:57;666.30;1689.60
55016;DHT22;40919;43.236;21.590;2023-10-09T13:13:30;665.90;1715.20
55016;DHT22;40919;43.236;21.590;2023-10-09T13:16:22;665.60;1689.60
55016;DHT22;40919;43.236;21.590;2023-10-09T13:18:55;665.70;1715.20
55016;DHT22;40919;43.236;21.590;2023-10-09T13:21:26;665.60;1689.60
55016;DHT22;40919;43.236;21.590;2023-10-09T13:23:52;665.70;1715.20
55016;DHT22;40919;43.236;21.590;2023-10-09T13:26:23;665.70;1715.20
55016;DHT22;40919;43.236;21.590;2023-10-09T13:29:02;665.60;1715.20
55016;DHT22;40919;43.236;21.590;2023-10-09T13:31:29;665.70;1715.20
55016;DHT22;40919;43.236;21.590;2023-10-09T13:33:58;665.70;1689.60
55016;DHT22;40919;43.236;21.590;2023-10-09T13:36:28;665.70;1715.20
55016;DHT22;40919;43.236;21.590;2023-10-09T13:38:58;665.70;1715.20
55016;DHT22;40919;43.236;21.590;2023-10-09T13:41:27;665.80;1715.20
55016;DHT22;40919;43.236;21.590;2023-10-09T13:43:55;665.70;1689.60
55016;DHT22;40919;43.236;21.590;2023-10-09T13:46:23;665.60;1689.60
55016;DHT22;40919;43.236;21.590;2023-10-09T13:48:49;665.60;1715.20
55016;DHT22;40919;43.236;21.590;2023-10-09T13:51:15;640.70;1689.60
55016;DHT22;40919;43.236;21.590;2023-10-09T13:53:48;640.70;1689.60
55016;DHT22;40919;43.236;21.590;2023-10-09T13:56:15;640.50;1689.60
55016;DHT22;40919;43.236;21.590;2023-10-09T13:58:53;640.50;1689.60
55016;DHT22;40919;43.236;21.590;2023-10-09T14:01:21;640.40;1715.20
55016;DHT22;40919;43.236;21.590;2023-10-09T14:03:59;640.20;1715.20
55016;DHT22;40919;43.236;21.590;2023-10-09T14:06:26;640.00;1715.20
55016;DHT22;40919;43.236;21.590;2023-10-09T14:09:02;640.00;1740.80
55016;DHT22;40919;43.236;21.590;2023-10-09T14:11:33;640.00;1740.80
55016;DHT22;40919;43.236;21.590;2023-10-09T14:14:04;615.30;1740.80
55016;DHT22;40919;43.236;21.590;2023-10-09T14:16:35;615.20;1740.80
55016;DHT22;40919;43.236;21.590;2023-10-09T14:19:01;615.20;1740.80
55016;DHT22;40919;43.236;21.590;2023-10-09T14:21:33;615.10;1766.40
55016;DHT22;40919;43.236;21.590;2023-10-09T14:24:04;615.00;1766.40
55016;DHT22;40919;43.236;21.590;2023-10-09T14:26:41;614.90;1766.40
55016;DHT22;40919;43.236;21.590;2023-10-09T14:29:08;614.80;1792.00
55016;DHT22;40919;43.236;21.590;2023-10-09T14:31:34;614.80;1792.00
55016;DHT22;40919;43.236;21.590;2023-10-09T14:34:05;614.70;1792.00
55016;DHT22;40919;43.236;21.590;2023-10-09T14:36:34;614.60;1792.00
55016;DHT22;40919;43.236;21.590;2023-10-09T14:39:02;614.60;1792.00
55016;DHT22;40919;43.236;21.590;2023-10-09T14:41:30;614.60;1817.60
55016;DHT22;40919;43.236;21.590;2023-10-09T14:43:59;614.50;1843.20
55016;DHT22;40919;43.236;21.590;2023-10-09T14:46:25;614.50;1817.60
55016;DHT22;40919;43.236;21.590;2023-10-09T14:48:55;589.70;1817.60
55016;DHT22;40919;43.236;21.590;2023-10-09T14:51:21;589.60;1817.60
55016;DHT22;40919;43.236;21.590;2023-10-09T14:53:54;589.60;1843.20
55016;DHT22;40919;43.236;21.590;2023-10-09T14:56:26;589.30;1843.20
55016;DHT22;40919;43.236;21.590;2023-10-09T14:58:59;589.50;1843.20
55016;DHT22;40919;43.236;21.590;2023-10-09T15:01:26;589.40;1843.20
55016;DHT22;40919;43.236;21.590;2023-10-09T15:03:58;589.40;1843.20
55016;DHT22;40919;43.236;21.590;2023-10-09T15:06:26;589.30;1868.80
55016;DHT22;40919;43.236;21.590;2023-10-09T15:08:54;589.20;1868.80
55016;DHT22;40919;43.236;21.590;2023-10-09T15:11:25;589.20;1843.20
55016;DHT22;40919;43.236;21.590;2023-10-09T15:13:52;589.10;1843.20
55016;DHT22;40919;43.236;21.590;2023-10-09T15:16:19;589.10;1843.20
55016;DHT22;40919;43.236;21.590;2023-10-09T15:18:49;589.00;1868.80
55016;DHT22;40919;43.236;21.590;2023-10-09T15:21:19;588.90;1868.80
55016;DHT22;40919;43.236;21.590;2023-10-09T15:23:52;588.90;1868.80
55016;DHT22;40919;43.236;21.590;2023-10-09T15:26:20;588.80;1868.80
55016;DHT22;40919;43.236;21.590;2023-10-09T15:28:46;564.10;1894.40
55016;DHT22;40919;43.236;21.590;2023-10-09T15:31:12;588.80;1894.40
55016;DHT22;40919;43.236;21.590;2023-10-09T15:33:38;564.10;1894.40
55016;DHT22;40919;43.236;21.590;2023-10-09T15:36:16;564.00;1894.40
55016;DHT22;40919;43.236;21.590;2023-10-09T15:38:50;563.90;1894.40
55016;DHT22;40919;43.236;21.590;2023-10-09T15:41:17;563.80;1894.40
55016;DHT22;40919;43.236;21.590;2023-10-09T15:43:44;563.80;1894.40
55016;DHT22;40919;43.236;21.590;2023-10-09T15:46:13;563.70;1894.40
55016;DHT22;40919;43.236;21.590;2023-10-09T15:48:42;563.70;1920.00
55016;DHT22;40919;43.236;21.590;2023-10-09T15:51:10;563.60;1920.00
55016;DHT22;40919;43.236;21.590;2023-10-09T15:53:45;563.60;1945.60
55016;DHT22;40919;43.236;21.590;2023-10-09T15:56:12;563.40;1945.60
55016;DHT22;40919;43.236;21.590;2023-10-09T15:58:41;563.30;1945.60
55016;DHT22;40919;43.236;21.590;2023-10-09T16:01:16;563.30;1971.20
55016;DHT22;40919;43.236;21.590;2023-10-09T16:03:46;563.20;1971.20
55016;DHT22;40919;43.236;21.590;2023-10-09T16:06:17;563.20;1971.20
55016;DHT22;40919;43.236;21.590;2023-10-09T16:08:45;563.20;1945.60
55016;DHT22;40919;43.236;21.590;2023-10-09T16:11:11;563.20;1945.60
55016;DHT22;40919;43.236;21.590;2023-10-09T16:13:41;563.20;1971.20
55016;DHT22;40919;43.236;21.590;2023-10-09T16:16:07;538.50;1945.60
55016;DHT22;40919;43.236;21.590;2023-10-09T16:18:34;538.40;1945.60
55016;DHT22;40919;43.236;21.590;2023-10-09T16:21:01;538.30;1971.20
55016;DHT22;40919;43.236;21.590;2023-10-09T16:53:12;512.60;1971.20
55016;DHT22;40919;43.236;21.590;2023-10-09T16:55:41;512.50;1945.60
55016;DHT22;40919;43.236;21.590;2023-10-09T16:58:07;512.50;1971.20
55016;DHT22;40919;43.236;21.590;2023-10-09T17:00:33;512.30;1996.80
55016;DHT22;40919;43.236;21.590;2023-10-09T17:03:03;512.30;1996.80
55016;DHT22;40919;43.236;21.590;2023-10-09T17:05:35;512.20;2022.40
55016;DHT22;40919;43.236;21.590;2023-10-09T17:08:23;512.10;1996.80
55016;DHT22;40919;43.236;21.590;2023-10-09T17:10:49;512.10;1996.80
55016;DHT22;40919;43.236;21.590;2023-10-09T17:13:17;512.10;1996.80
55016;DHT22;40919;43.236;21.590;2023-10-09T17:15:49;512.00;1971.20
55016;DHT22;40919;43.236;21.590;2023-10-09T17:18:24;512.00;1996.80
55016;DHT22;40919;43.236;21.590;2023-10-09T17:20:52;512.00;2048.00
55016;DHT22;40919;43.236;21.590;2023-10-09T17:23:18;487.30;2073.60
55016;DHT22;40919;43.236;21.590;2023-10-09T17:25:43;487.30;2073.60
55016;DHT22;40919;43.236;21.590;2023-10-09T17:28:13;487.20;2048.00
55016;DHT22;40919;43.236;21.590;2023-10-09T17:30:48;487.10;2048.00
55016;DHT22;40919;43.236;21.590;2023-10-09T17:33:15;487.10;2073.60
55016;DHT22;40919;43.236;21.590;2023-10-09T17:35:48;486.90;2048.00
55016;DHT22;40919;43.236;21.590;2023-10-09T17:38:15;486.90;2048.00
55016;DHT22;40919;43.236;21.590;2023-10-09T17:45:45;486.90;2099.20
55016;DHT22;40919;43.236;21.590;2023-10-09T17:48:11;486.70;2099.20
55016;DHT22;40919;43.236;21.590;2023-10-09T17:53:08;486.80;2099.20
55016;DHT22;40919;43.236;21.590;2023-10-09T18:37:57;461.60;2227.20
55016;DHT22;40919;43.236;21.590;2023-10-09T18:40:25;461.30;2252.80
55016;DHT22;40919;43.236;21.590;2023-10-09T18:43:00;461.20;2278.40
